Time;durP1;ratioP1;P1;durP2;ratioP2;P2;SDS_P1;SDS_P2;PMS_P1;PMS_P2;Temp;Humidity;BMP_temperature;BMP_pressure;BME280_temperature;BME280_humidity;BME280_pressure;Samples;Min_cycle;Max_cycle;Signal;HPM_P1;HPM_P2
2023/10/22 00:02:19;;;;;;;3.75;1.58;;;;;;;;;;5095121;28;20130;-85
2023/10/22 00:04:45;;;;;;;7.07;1.45;;;;;;;;;;5060981;28;20085;-80
2023/10/22 00:07:14;;;;;;;11.35;2.17;;;;;;;;;;5095152;28;20086;-82
2023/10/22 00:09:40;;;;;;;5.22;1.30;;;;;;;;;;5094152;28;20400;-83
2023/10/22 00:12:06;;;;;;;7.55;1.40;;;;;;;;;;5095423;28;20500;-85
2023/10/22 00:14:32;;;;;;;10.02;1.48;;;;;;;;;;5052615;28;20169;-84
2023/10/22 00:16:58;;;;;;;3.42;1.45;;;;;;;;;;5042469;28;20040;-84
2023/10/22 00:19:24;;;;;;;5.40;1.45;;;;;;;;;;5095226;28;20043;-83
2023/10/22 00:21:50;;;;;;;2.35;1.27;;;;;;;;;;5078154;28;20047;-83
2023/10/22 00:24:16;;;;;;;3.10;1.10;;;13.10;32.50;;;;;;5077820;28;20548;-84
2023/10/22 00:26:42;;;;;;;4.05;1.48;;;;;;;;;;5061535;28;20048;-81
2023/10/22 00:29:08;;;;;;;4.95;1.30;;;;;;;;;;5093499;28;20055;-83
2023/10/22 00:31:34;;;;;;;4.25;1.20;;;;;;;;;;5077246;28;20043;-84
2023/10/22 00:34:00;;;;;;;6.57;1.20;;;13.10;30.60;;;;;;5094965;28;20043;-85
2023/10/22 00:36:26;;;;;;;6.88;1.60;;;;;;;;;;5074416;28;20389;-81
2023/10/22 00:38:52;;;;;;;3.42;1.10;;;13.30;23.10;;;;;;5057875;28;20428;-83
2023/10/22 00:41:18;;;;;;;9.38;1.42;;;;;;;;;;5058518;28;20514;-84
2023/10/22 00:43:44;;;;;;;6.78;2.00;;;;;;;;;;5074487;28;20040;-83
2023/10/22 00:46:20;;;;;;;5.80;1.55;;;13.30;16.70;;;;;;5057844;28;20048;-85
2023/10/22 00:48:47;;;;;;;5.35;1.52;;;13.20;15.20;;;;;;5077436;28;20101;-84
2023/10/22 00:51:14;;;;;;;7.90;3.15;;;;;;;;;;5077361;28;20643;-81
2023/10/22 00:53:42;;;;;;;3.10;1.45;;;13.30;10.00;;;;;;5076429;28;20164;-82
2023/10/22 00:56:08;;;;;;;4.10;1.17;;;;;;;;;;5094714;28;20070;-82
2023/10/22 00:58:34;;;;;;;5.68;1.42;;;;;;;;;;5077135;28;20039;-83
2023/10/22 01:01:03;;;;;;;6.28;1.42;;;;;;;;;;5093909;28;20043;-84
2023/10/22 01:03:30;;;;;;;3.67;1.58;;;;;;;;;;5078092;28;20047;-84
2023/10/22 01:05:56;;;;;;;2.28;1.65;;;;;;;;;;5093081;28;20042;-83
2023/10/22 01:08:22;;;;;;;1.67;1.10;;;;;;;;;;5093991;28;20046;-83
2023/10/22 01:10:49;;;;;;;5.40;1.42;;;;;;;;;;5077082;28;20047;-85
2023/10/22 01:13:15;;;;;;;2.00;0.95;;;;;;;;;;5092971;28;20044;-86
2023/10/22 01:15:41;;;;;;;3.30;1.38;;;13.30;25.20;;;;;;5076998;28;20126;-86
2023/10/22 01:18:08;;;;;;;3.17;1.50;;;;;;;;;;5077036;28;20146;-85
2023/10/22 01:20:33;;;;;;;6.05;1.42;;;13.30;29.60;;;;;;5093944;28;20096;-84
2023/10/22 01:23:01;;;;;;;2.80;0.98;;;;;;;;;;5059601;28;20972;-86
2023/10/22 01:25:27;;;;;;;6.57;1.50;;;;;;;;;;5077612;28;20236;-84
2023/10/22 01:27:53;;;;;;;4.18;1.55;;;;;;;;;;5056490;28;20036;-85
2023/10/22 01:30:19;;;;;;;4.25;1.27;;;;;;;;;;5073855;28;20044;-83
2023/10/22 01:32:46;;;;;;;5.75;1.90;;;;;;;;;;5060481;28;20499;-84
2023/10/22 01:35:12;;;;;;;3.40;1.15;;;;;;;;;;5075465;28;20655;-84
2023/10/22 01:37:38;;;;;;;2.25;1.13;;;;;;;;;;5077098;28;20139;-83
2023/10/22 01:40:04;;;;;;;2.80;1.20;;;;;;;;;;5076992;28;20056;-86
2023/10/22 01:42:31;;;;;;;3.47;1.30;;;13.00;35.90;;;;;;5057169;28;20048;-85
2023/10/22 01:44:58;;;;;;;3.20;1.02;;;;;;;;;;5077381;28;20423;-84
2023/10/22 01:47:24;;;;;;;2.67;1.10;;;;;;;;;;5077001;28;20047;-84
2023/10/22 01:49:49;;;;;;;4.20;0.88;;;12.70;57.30;;;;;;5093666;28;20496;-85
2023/10/22 01:52:15;;;;;;;3.30;1.52;;;;;;;;;;5060061;28;20220;-85
2023/10/22 01:54:41;;;;;;;4.40;1.00;;;;;;;;;;5076035;28;20040;-84
2023/10/22 01:57:07;;;;;;;4.47;1.88;;;;;;;;;;5093452;28;20058;-82
2023/10/22 01:59:34;;;;;;;3.70;1.50;;;;;;;;;;5077091;28;20047;-84
2023/10/22 02:02:00;;;;;;;6.75;1.30;;;;;;;;;;5059841;28;20518;-86
2023/10/22 02:04:26;;;;;;;3.58;1.30;;;;;;;;;;5059370;28;20039;-83
2023/10/22 02:06:52;;;;;;;1.60;0.95;;;;;;;;;;5077035;28;20054;-86
2023/10/22 02:09:18;;;;;;;1.42;1.00;;;;;;;;;;5093721;28;20126;-84
2023/10/22 02:11:44;;;;;;;1.80;0.98;;;;;;;;;;5093633;28;20510;-85
2023/10/22 02:14:10;;;;;;;2.38;1.00;;;;;;;;;;5093221;28;20036;-82
2023/10/22 02:16:36;;;;;;;5.95;1.40;;;;;;;;;;5092784;28;20048;-82
2023/10/22 02:19:02;;;;;;;2.17;1.25;;;;;;;;;;5059170;28;20047;-85
2023/10/22 02:21:28;;;;;;;2.60;1.25;;;;;;;;;;5076782;28;20050;-86
2023/10/22 02:23:55;;;;;;;3.72;1.52;;;;;;;;;;5059748;28;20043;-87
2023/10/22 02:26:21;;;;;;;4.85;1.95;;;;;;;;;;5072441;28;20079;-85
2023/10/22 02:28:47;;;;;;;1.20;1.15;;;;;;;;;;5056431;28;20048;-81
2023/10/22 02:31:13;;;;;;;4.40;1.40;;;;;;;;;;5056490;28;20044;-83
2023/10/22 02:33:39;;;;;;;3.92;1.80;;;;;;;;;;5059815;28;20169;-87
2023/10/22 02:36:06;;;;;;;2.42;1.25;;;;;;;;;;5076774;28;20051;-86
2023/10/22 02:38:33;;;;;;;1.40;1.17;;;;;;;;;;5058003;28;20163;-86
2023/10/22 02:40:59;;;;;;;2.40;1.40;;;;;;;;;;5080492;28;20086;-87
2023/10/22 02:43:25;;;;;;;2.15;1.30;;;;;;;;;;5063441;28;20127;-88
2023/10/22 02:45:52;;;;;;;3.00;1.52;;;;;;;;;;5080302;28;20404;-85
2023/10/22 02:48:18;;;;;;;5.35;1.67;;;;;;;;;;5096873;28;20044;-86
2023/10/22 02:50:45;;;;;;;4.25;1.35;;;;;;;;;;5078567;28;20045;-85
2023/10/22 02:53:11;;;;;;;3.28;1.60;;;;;;;;;;5096618;28;20075;-86
2023/10/22 02:55:37;;;;;;;1.63;1.20;;;;;;;;;;5096661;28;20047;-87
2023/10/22 02:58:03;;;;;;;1.73;1.10;;;;;;;;;;5063012;28;20044;-88
2023/10/22 03:00:29;;;;;;;8.50;2.30;;;;;;;;;;5079693;28;20090;-86
2023/10/22 03:02:55;;;;;;;1.15;0.90;;;;;;;;;;5095420;28;20035;-86
2023/10/22 03:05:21;;;;;;;1.83;0.95;;;;;;;;;;5062976;28;20483;-87
2023/10/22 03:07:47;;;;;;;1.63;1.30;;;;;;;;;;5079857;28;20096;-81
2023/10/22 03:10:13;;;;;;;1.05;0.90;;;;;;;;;;5096478;28;20126;-87
2023/10/22 03:12:39;;;;;;;2.25;1.58;;;;;;;;;;5079561;28;20040;-87
2023/10/22 03:15:07;;;;;;;1.58;1.48;;;;;;;;;;5095162;28;20054;-88
2023/10/22 03:17:33;;;;;;;2.20;1.30;;;;;;;;;;5063407;28;20043;-87
2023/10/22 03:20:00;;;;;;;1.17;0.95;;;;;;;;;;5063180;28;20039;-87
2023/10/22 03:22:27;;;;;;;4.35;1.42;;;;;;;;;;5079556;28;20047;-85
2023/10/22 03:24:53;;;;;;;1.50;1.00;;;;;;;;;;5096277;28;20053;-86
2023/10/22 03:27:19;;;;;;;1.52;0.90;;;;;;;;;;5094532;28;20051;-88
2023/10/22 03:29:45;;;;;;;3.75;1.30;;;;;;;;;;5062423;28;20082;-88
2023/10/22 03:32:11;;;;;;;1.00;1.00;;;;;;;;;;5079215;28;20100;-88
2023/10/22 03:34:37;;;;;;;2.50;1.73;;;;;;;;;;5078752;28;20075;-87
2023/10/22 03:37:08;;;;;;;2.13;1.27;;;;;;;;;;5095081;28;20071;-89
2023/10/22 03:39:37;;;;;;;1.35;1.05;;;;;;;;;;5078282;28;20055;-90
2023/10/22 03:42:04;;;;;;;3.22;1.50;;;;;;;;;;5078910;28;20043;-90
2023/10/22 03:44:30;;;;;;;3.10;1.60;;;;;;;;;;5095440;28;20399;-89
2023/10/22 03:46:56;;;;;;;2.72;1.35;;;;;;;;;;5078823;28;20083;-89
2023/10/22 03:49:22;;;;;;;5.13;1.85;;;;;;;;;;5094589;28;20052;-90
2023/10/22 03:51:48;;;;;;;2.95;1.30;;;;;;;;;;5078942;28;20055;-90
2023/10/22 03:54:14;;;;;;;2.47;1.65;;;;;;;;;;5078693;28;20036;-90
2023/10/22 03:56:40;;;;;;;2.15;1.67;;;;;;;;;;5095819;28;20052;-90
2023/10/22 03:59:06;;;;;;;2.03;1.83;;;;;;;;;;5095607;28;20032;-90
2023/10/22 04:01:32;;;;;;;2.72;1.20;;;;;;;;;;5077906;28;20047;-93
2023/10/22 04:03:59;;;;;;;3.35;1.55;;;;;;;;;;5079579;28;20120;-92
2023/10/22 04:06:25;;;;;;;2.67;1.63;;;;;;;;;;5059780;28;20043;-93
2023/10/22 04:08:51;;;;;;;1.88;1.17;;;;;;;;;;5062337;28;20049;-92
2023/10/22 04:11:20;;;;;;;1.25;1.15;;;;;;;;;;5095694;28;20054;-92
2023/10/22 04:13:47;;;;;;;1.33;1.23;;;;;;;;;;5094901;28;20039;-92
2023/10/22 04:16:16;;;;;;;2.67;1.30;;;;;;;;;;5078851;28;20043;-91
2023/10/22 04:18:42;;;;;;;3.17;1.42;;;;;;;;;;5078912;28;20058;-90
2023/10/22 04:21:12;;;;;;;1.85;1.15;;;;;;;;;;5078509;28;20040;-92
2023/10/22 04:23:38;;;;;;;1.27;1.17;;;;;;;;;;5078458;28;20079;-90
2023/10/22 04:26:05;;;;;;;1.67;1.15;;;;;;;;;;5077406;28;20043;-90
2023/10/22 04:28:32;;;;;;;1.45;1.10;;;;;;;;;;5077620;28;20048;-90
2023/10/22 04:30:58;;;;;;;1.27;1.17;;;;;;;;;;5077920;28;20047;-90
2023/10/22 04:33:24;;;;;;;1.48;1.05;;;;;;;;;;5095238;28;20047;-90
2023/10/22 04:35:50;;;;;;;1.00;0.98;;;;;;;;;;5078081;28;20050;-92
2023/10/22 04:38:16;;;;;;;1.45;1.17;;;;;;;;;;5057623;28;20138;-92
2023/10/22 04:40:43;;;;;;;4.13;1.20;;;;;;;;;;5054375;28;20504;-91
2023/10/22 04:43:09;;;;;;;1.77;1.25;;;;;;;;;;5095352;28;20134;-90
2023/10/22 04:45:35;;;;;;;1.17;1.02;;;;;;;;;;5094908;28;20052;-91
2023/10/22 04:48:01;;;;;;;0.90;0.90;;;;;;;;;;5078081;28;20043;-91
2023/10/22 04:50:29;;;;;;;2.88;1.02;;;;;;;;;;5073836;28;20404;-91
2023/10/22 04:52:57;;;;;;;1.52;1.10;;;;;;;;;;5057567;28;20492;-90
2023/10/22 04:55:23;;;;;;;1.67;1.40;;;;;;;;;;5077703;28;20051;-89
2023/10/22 04:57:49;;;;;;;1.30;1.20;;;;;;;;;;5094644;28;20101;-90
2023/10/22 05:00:15;;;;;;;3.72;1.52;;;;;;;;;;5093719;28;20043;-91
2023/10/22 05:02:42;;;;;;;1.70;1.60;;;;;;;;;;5094517;28;20047;-90
2023/10/22 05:05:08;;;;;;;2.97;1.30;;;;;;;;;;5048308;28;20048;-90
2023/10/22 05:07:34;;;;;;;1.80;1.70;;;;;;;;;;5064272;28;20104;-88
2023/10/22 05:10:00;;;;;;;2.13;1.80;;;;;;;;;;5094312;28;20063;-83
2023/10/22 05:12:26;;;;;;;2.08;1.88;;;;;;;;;;5094176;28;20484;-88
2023/10/22 05:14:52;;;;;;;2.83;2.60;;;;;;;;;;5093648;28;20535;-90
2023/10/22 05:17:18;;;;;;;3.22;2.30;;;;;;;;;;5055861;28;20504;-89
2023/10/22 05:19:44;;;;;;;6.15;3.17;;;;;;;;;;5074364;28;20043;-88
2023/10/22 05:22:10;;;;;;;3.03;2.72;;;;;;;;;;5074237;28;20565;-89
2023/10/22 05:24:36;;;;;;;3.95;2.80;;;;;;;;;;5057409;28;20070;-89
2023/10/22 05:27:02;;;;;;;4.85;3.50;;;;;;;;;;5071746;28;20419;-88
2023/10/22 05:29:28;;;;;;;5.03;3.85;;;;;;;;;;5073531;28;20143;-89
2023/10/22 05:31:55;;;;;;;5.05;4.05;;;;;;;;;;5073822;28;20105;-86
2023/10/22 05:34:21;;;;;;;4.00;3.67;;;;;;;;;;5040840;28;20123;-87
2023/10/22 05:36:47;;;;;;;4.32;3.53;;;;;;;;;;5040769;28;20411;-84
2023/10/22 05:39:13;;;;;;;4.40;3.88;;;;;;;;;;5074093;28;20381;-83
2023/10/22 05:41:39;;;;;;;4.55;4.10;;;;;;;;;;5059660;28;20043;-87
2023/10/22 05:44:05;;;;;;;6.55;5.25;;;;;;;;;;5076925;28;20396;-88
2023/10/22 05:46:32;;;;;;;5.93;4.22;;;;;;;;;;5077339;28;20093;-83
2023/10/22 05:48:58;;;;;;;6.43;4.68;;;;;;;;;;5077313;28;20043;-85
2023/10/22 05:51:24;;;;;;;5.72;4.28;;;;;;;;;;5092641;28;20050;-85
2023/10/22 05:53:50;;;;;;;4.88;4.28;;;;;;;;;;5094053;28;20092;-90
2023/10/22 05:56:17;;;;;;;4.22;3.90;;;;;;;;;;5077674;28;20450;-92
2023/10/22 05:58:43;;;;;;;3.03;2.72;;;;;;;;;;5077335;28;20101;-92
2023/10/22 06:01:10;;;;;;;2.97;2.65;;;;;;;;;;5077184;28;20040;-91
2023/10/22 06:03:36;;;;;;;1.75;1.17;;;;;;;;;;5076791;28;20074;-91
2023/10/22 06:06:03;;;;;;;0.90;0.90;;;;;;;;;;5078139;28;20040;-89
2023/10/22 06:08:29;;;;;;;1.80;1.05;;;;;;;;;;5098301;28;20044;-91
2023/10/22 06:10:55;;;;;;;0.82;0.82;;;;;;;;;;5097053;28;20039;-91
2023/10/22 06:13:21;;;;;;;1.55;0.80;;;;;;;;;;5098098;28;20055;-90
2023/10/22 06:15:47;;;;;;;4.63;1.13;;;;;;;;;;5081260;28;20043;-90
2023/10/22 06:18:13;;;;;;;1.45;1.25;;;;;;;;;;5097903;28;20492;-89
2023/10/22 06:20:40;;;;;;;2.65;1.05;;;;;;;;;;5095810;28;20097;-84
2023/10/22 06:23:06;;;;;;;2.35;1.33;;;;;;;;;;5075348;28;20521;-88
2023/10/22 06:25:33;;;;;;;1.67;1.20;;;;;;;;;;5079123;28;20488;-82
2023/10/22 06:27:59;;;;;;;6.15;1.65;;;;;;;;;;5080152;28;20036;-83
2023/10/22 06:30:26;;;;;;;4.97;1.83;;;;;;;;;;5097449;28;20040;-89
2023/10/22 06:32:52;;;;;;;4.80;2.00;;;;;;;;;;5079347;28;20377;-90
2023/10/22 06:35:23;;;;;;;5.00;2.17;;;;;;;;;;5079774;28;20535;-91
2023/10/22 06:37:53;;;;;;;6.57;2.08;;;;;;;;;;5097073;28;20081;-88
2023/10/22 06:40:23;;;;;;;4.45;1.60;;;;;;;;;;5096935;28;20063;-83
2023/10/22 06:42:49;;;;;;;9.95;1.60;;;;;;;;;;5078655;28;20093;-85
2023/10/22 06:45:16;;;;;;;2.03;1.10;;;;;;;;;;5093749;28;20035;-82
2023/10/22 06:47:42;;;;;;;4.20;1.58;;;;;;;;;;5078422;28;20055;-82
2023/10/22 06:50:09;;;;;;;2.00;1.02;;;;;;;;;;5077742;28;20039;-83
2023/10/22 06:52:35;;;;;;;4.35;1.45;;;12.00;98.80;;;;;;5078418;28;20039;-86
2023/10/22 06:55:02;;;;;;;5.10;1.83;;;;;;;;;;5094183;28;20377;-88
2023/10/22 06:57:28;;;;;;;3.17;1.08;;;;;;;;;;5078116;28;20055;-89
2023/10/22 06:59:55;;;;;;;3.13;1.63;;;;;;;;;;5095776;28;20040;-89
2023/10/22 07:02:22;;;;;;;8.00;1.30;;;;;;;;;;5077964;28;20130;-84
2023/10/22 07:04:52;;;;;;;6.10;1.73;;;;;;;;;;5094764;28;20044;-82
2023/10/22 07:07:18;;;;;;;1.95;1.40;;;;;;;;;;5076765;28;20909;-88
2023/10/22 07:09:44;;;;;;;3.78;1.50;;;;;;;;;;5095271;28;20167;-90
2023/10/22 07:12:10;;;;;;;6.78;1.73;;;;;;;;;;5079963;28;20059;-89
2023/10/22 07:14:36;;;;;;;3.15;1.73;;;;;;;;;;5096195;28;20484;-90
2023/10/22 07:17:02;;;;;;;3.60;1.60;;;;;;;;;;5095850;28;20408;-89
2023/10/22 07:19:28;;;;;;;3.60;1.80;;;;;;;;;;5078623;28;20411;-89
2023/10/22 07:21:55;;;;;;;4.60;2.05;;;;;;;;;;5095591;28;20032;-89
2023/10/22 07:24:21;;;;;;;5.95;2.22;;;;;;;;;;5079647;28;20407;-90
2023/10/22 07:26:47;;;;;;;3.70;1.85;;;;;;;;;;5095246;28;20054;-89
2023/10/22 07:29:14;;;;;;;5.43;1.98;;;;;;;;;;5079294;28;20109;-89
2023/10/22 07:31:40;;;;;;;4.68;2.00;;;;;;;;;;5095565;28;20043;-90
2023/10/22 07:34:09;;;;;;;4.82;2.17;;;;;;;;;;5079271;28;20047;-90
2023/10/22 07:36:35;;;;;;;10.80;2.30;;;;;;;;;;5062794;28;20110;-90
2023/10/22 07:39:01;;;;;;;8.43;2.47;;;;;;;;;;5058399;28;20047;-91
2023/10/22 07:41:28;;;;;;;11.65;1.98;;;;;;;;;;5042566;28;20543;-91
2023/10/22 07:43:54;;;;;;;8.43;2.75;;;;;;;;;;5051567;28;20472;-90
2023/10/22 07:46:20;;;;;;;2.72;2.08;;;;;;;;;;5079295;28;20044;-92
2023/10/22 07:48:46;;;;;;;9.40;2.03;;;;;;;;;;5058285;28;20405;-91
2023/10/22 07:51:13;;;;;;;8.15;2.10;;;;;;;;;;5059158;28;20044;-90
2023/10/22 07:53:39;;;;;;;3.08;2.20;;;;;;;;;;5079241;28;20088;-90
2023/10/22 07:56:06;;;;;;;2.60;2.00;;;;;;;;;;5095646;28;20145;-89
2023/10/22 07:58:35;;;;;;;3.33;1.92;;;;;;;;;;5077417;28;20043;-90
2023/10/22 08:01:02;;;;;;;4.40;2.35;;;;;;;;;;5095762;28;20044;-90
2023/10/22 08:03:29;;;;;;;6.95;2.58;;;;;;;;;;5078729;28;20172;-90
2023/10/22 08:05:55;;;;;;;6.10;2.25;;;;;;;;;;5095325;28;20043;-89
2023/10/22 08:08:22;;;;;;;4.07;2.25;;;;;;;;;;5094861;28;20043;-89
2023/10/22 08:10:48;;;;;;;5.18;2.47;;;;;;;;;;5093999;28;20039;-90
2023/10/22 08:13:14;;;;;;;6.63;3.15;;;;;;;;;;5062639;28;20039;-89
2023/10/22 08:15:40;;;;;;;6.55;2.50;;;;;;;;;;5095579;28;20050;-90
2023/10/22 08:18:06;;;;;;;6.53;2.35;;;;;;;;;;5095721;28;20077;-89
2023/10/22 08:20:33;;;;;;;8.05;2.03;;;;;;;;;;5094998;28;20044;-88
2023/10/22 08:22:59;;;;;;;3.33;1.95;;;;;;;;;;5077389;28;20085;-87
2023/10/22 08:25:25;;;;;;;5.25;2.28;;;;;;;;;;5061819;28;20079;-89
2023/10/22 08:27:51;;;;;;;6.80;2.25;;;;;;;;;;5095081;28;20044;-89
2023/10/22 08:30:17;;;;;;;8.40;2.05;;;;;;;;;;5060706;28;20063;-89
2023/10/22 08:32:47;;;;;;;10.27;2.17;;;;;;;;;;5077857;28;20044;-86
2023/10/22 08:35:13;;;;;;;3.75;2.03;;;;;;;;;;5057899;28;20040;-86
2023/10/22 08:37:40;;;;;;;2.67;2.05;;;;;;;;;;5074763;28;20044;-87
2023/10/22 08:40:08;;;;;;;14.27;2.22;;;;;;;;;;5057442;28;20052;-85
2023/10/22 08:42:35;;;;;;;7.45;1.83;;;12.10;96.00;;;;;;5074374;28;20044;-85
2023/10/22 08:45:02;;;;;;;6.65;2.38;;;12.00;97.60;;;;;;5087635;28;20123;-86
2023/10/22 08:47:32;;;;;;;3.75;1.63;;;;;;;;;;5077025;28;20055;-85
2023/10/22 08:49:58;;;;;;;7.97;2.10;;;;;;;;;;5077338;28;20534;-86
2023/10/22 08:52:24;;;;;;;5.60;1.98;;;;;;;;;;5077684;28;20063;-86
2023/10/22 08:54:53;;;;;;;6.95;2.47;;;;;;;;;;5077628;28;20075;-84
2023/10/22 08:57:27;;;;;;;4.90;2.10;;;;;;;;;;5092749;28;20047;-85
2023/10/22 08:59:53;;;;;;;27.40;2.30;;;;;;;;;;5057861;28;20177;-85
2023/10/22 09:02:26;;;;;;;5.95;1.52;;;;;;;;;;5057421;28;20492;-86
2023/10/22 09:04:52;;;;;;;1.20;1.10;;;;;;;;;;5074026;28;20044;-86
2023/10/22 09:07:18;;;;;;;5.28;1.90;;;;;;;;;;5054431;28;20051;-86
2023/10/22 09:09:44;;;;;;;4.45;1.55;;;;;;;;;;5075833;28;20181;-85
2023/10/22 09:12:13;;;;;;;7.68;1.77;;;;;;;;;;5077378;28;20515;-85
2023/10/22 09:14:42;;;;;;;2.38;1.92;;;12.40;96.00;;;;;;5061091;28;20042;-86
2023/10/22 09:17:16;;;;;;;8.70;1.40;;;12.20;95.90;;;;;;5077710;28;20062;-85
2023/10/22 09:19:48;;;;;;;4.05;1.60;;;;;;;;;;5073113;28;20104;-84
2023/10/22 09:22:25;;;;;;;5.15;1.67;;;12.30;95.30;;;;;;5048134;28;20130;-84
2023/10/22 09:24:55;;;;;;;3.25;1.42;;;12.50;91.90;;;;;;5076819;28;20031;-83
2023/10/22 09:27:25;;;;;;;8.43;1.40;;;;;;;;;;5076717;28;20044;-83
2023/10/22 09:29:53;;;;;;;2.20;1.10;;;;;;;;;;5093947;28;20519;-83
2023/10/22 09:32:19;;;;;;;5.30;1.30;;;;;;;;;;5077686;28;20047;-83
2023/10/22 09:34:46;;;;;;;1.40;0.88;;;;;;;;;;5057123;28;20406;-83
2023/10/22 09:37:12;;;;;;;1.45;0.95;;;;;;;;;;5056937;28;20044;-83
2023/10/22 09:39:43;;;;;;;8.45;1.58;;;12.50;84.70;;;;;;5093453;28;20139;-84
2023/10/22 09:42:09;;;;;;;6.38;1.77;;;;;;;;;;5095219;28;20492;-83
2023/10/22 09:44:37;;;;;;;6.38;1.10;;;12.60;74.90;;;;;;5098405;28;20122;-83
2023/10/22 09:47:08;;;;;;;0.90;0.80;;;12.60;73.20;;;;;;5080419;28;20051;-83
2023/10/22 09:49:37;;;;;;;8.65;4.22;;;;;;;;;;5097785;28;20048;-84
2023/10/22 09:52:06;;;;;;;4.35;1.20;;;13.00;60.80;;;;;;5096241;28;20047;-84
2023/10/22 09:54:39;;;;;;;2.72;1.20;;;;;;;;;;5080912;28;20035;-83
2023/10/22 09:57:15;;;;;;;3.70;1.10;;;;;;;;;;5081112;28;20052;-83
2023/10/22 09:59:42;;;;;;;0.82;0.80;;;12.80;49.70;;;;;;5098072;28;20492;-84
2023/10/22 10:02:14;;;;;;;6.18;1.08;;;12.80;46.90;;;;;;5095986;28;20044;-83
2023/10/22 10:04:41;;;;;;;7.32;1.20;;;;;;;;;;5097671;28;20044;-83
2023/10/22 10:07:07;;;;;;;1.17;1.08;;;;;;;;;;5060494;28;20496;-84
2023/10/22 10:09:34;;;;;;;3.00;0.95;;;;;;;;;;5060518;28;20048;-83
2023/10/22 10:12:03;;;;;;;2.40;0.80;;;;;;;;;;5062253;28;20461;-83
2023/10/22 10:14:38;;;;;;;7.03;0.95;;;;;;;;;;5095896;28;20092;-83
2023/10/22 10:17:04;;;;;;;1.20;0.85;;;;;;;;;;5077006;28;20039;-84
2023/10/22 10:19:31;;;;;;;2.17;0.98;;;;;;;;;;5080692;28;20088;-84
2023/10/22 10:21:57;;;;;;;1.52;0.95;;;;;;;;;;5080560;28;20039;-83
2023/10/22 10:24:28;;;;;;;3.10;1.10;;;13.20;38.80;;;;;;5097226;28;20552;-83
2023/10/22 10:26:57;;;;;;;4.97;0.93;;;;;;;;;;5096417;28;20399;-83
2023/10/22 10:29:26;;;;;;;3.35;1.02;;;;;;;;;;5097208;28;20480;-82
2023/10/22 10:31:53;;;;;;;3.08;1.00;;;13.20;15.20;;;;;;5097234;28;20055;-83
2023/10/22 10:34:27;;;;;;;3.63;1.33;;;;;;;;;;5077011;28;20051;-83
2023/10/22 10:36:54;;;;;;;1.65;1.00;;;13.20;11.40;;;;;;5063906;28;20104;-83
2023/10/22 10:39:46;;;;;;;2.22;1.25;;;12.90;3.10;;;;;;5077891;28;20083;-83
2023/10/22 10:42:13;;;;;;;1.27;0.95;;;;;;;;;;5080320;28;20404;-83
2023/10/22 10:45:03;;;;;;;0.95;0.80;;;13.00;11.70;;;;;;5080041;28;20486;-83
2023/10/22 10:47:32;;;;;;;2.70;1.10;;;;;;;;;;5067869;28;20089;-84
2023/10/22 10:50:03;;;;;;;1.77;0.80;;;;;;;;;;5078306;28;21633;-83
2023/10/22 10:52:49;;;;;;;2.45;1.50;;;;;;;;;;5079409;28;20451;-85
2023/10/22 10:55:15;;;;;;;1.33;0.88;;;;;;;;;;5079301;28;20043;-85
2023/10/22 10:57:50;;;;;;;4.70;0.85;;;;;;;;;;5080835;28;20088;-85
2023/10/22 11:00:21;;;;;;;2.63;1.10;;;;;;;;;;5063588;28;20055;-85
2023/10/22 11:02:48;;;;;;;2.20;0.90;;;;;;;;;;5095387;28;20040;-82
2023/10/22 11:05:18;;;;;;;0.60;0.60;;;;;;;;;;5115107;28;20127;-85
2023/10/22 11:07:44;;;;;;;1.77;0.80;;;13.20;1.00;;;;;;5096633;28;20047;-85
2023/10/22 11:10:13;;;;;;;4.43;1.00;;;;;;;;;;5115104;28;20119;-85
2023/10/22 11:12:39;;;;;;;1.52;0.95;;;;;;;;;;5095580;28;20040;-85
2023/10/22 11:15:07;;;;;;;1.35;0.90;;;;;;;;;;5114820;28;20130;-85
2023/10/22 11:17:33;;;;;;;3.97;0.70;;;;;;;;;;5096613;28;20500;-84
2023/10/22 11:19:59;;;;;;;1.48;0.82;;;;;;;;;;5079735;28;20040;-85
2023/10/22 11:22:25;;;;;;;3.13;0.93;;;;;;;;;;5063402;28;20051;-85
2023/10/22 11:24:51;;;;;;;9.48;1.10;;;;;;;;;;5058510;28;20597;-84
2023/10/22 11:27:18;;;;;;;1.95;1.08;;;;;;;;;;5058945;28;20510;-83
2023/10/22 11:29:49;;;;;;;2.03;1.05;;;;;;;;;;5093874;28;20477;-84
2023/10/22 11:32:16;;;;;;;1.40;0.70;;;;;;;;;;5075907;28;20048;-84
2023/10/22 11:34:52;;;;;;;2.63;0.98;;;;;;;;;;5059916;28;20093;-83
2023/10/22 11:37:20;;;;;;;1.08;0.60;;;;;;;;;;5102518;28;20055;-83
2023/10/22 11:39:47;;;;;;;1.00;0.70;;;;;;;;;;5114395;28;20106;-82
2023/10/22 11:42:13;;;;;;;1.75;1.10;;;;;;;;;;5079725;28;20050;-83
2023/10/22 11:44:43;;;;;;;0.80;0.70;;;;;;;;;;5096671;28;20040;-83
2023/10/22 11:47:25;;;;;;;2.30;0.70;;;;;;;;;;5095761;28;20048;-84
2023/10/22 11:49:55;;;;;;;1.30;0.60;;;;;;;;;;5078350;28;20058;-83
2023/10/22 11:52:40;;;;;;;1.42;0.70;;;;;;;;;;5078999;28;20039;-84
2023/10/22 11:55:07;;;;;;;0.77;0.57;;;;;;;;;;5096160;28;20504;-82
2023/10/22 11:57:33;;;;;;;1.25;1.13;;;;;;;;;;5095297;28;20035;-84
2023/10/22 11:59:59;;;;;;;1.90;0.60;;;;;;;;;;5111531;28;20040;-84
2023/10/22 12:02:26;;;;;;;1.00;0.73;;;;;;;;;;5077413;28;20096;-83
2023/10/22 12:04:52;;;;;;;0.90;0.65;;;;;;;;;;5113428;28;20047;-84
2023/10/22 12:07:18;;;;;;;1.58;0.60;;;;;;;;;;5095275;28;20048;-84
2023/10/22 12:09:44;;;;;;;1.08;0.60;;;;;;;;;;5062650;28;20081;-83
2023/10/22 12:12:10;;;;;;;0.50;0.50;;;;;;;;;;5078408;28;20050;-84
2023/10/22 12:14:38;;;;;;;1.65;0.57;;;;;;;;;;5095983;28;20035;-84
2023/10/22 12:17:04;;;;;;;0.68;0.60;;;;;;;;;;5095226;28;20081;-84
2023/10/22 12:19:30;;;;;;;0.50;0.50;;;;;;;;;;5074163;28;20036;-84
2023/10/22 12:21:56;;;;;;;0.88;0.50;;;;;;;;;;5086460;28;20055;-84
2023/10/22 12:24:22;;;;;;;1.25;0.63;;;;;;;;;;5061970;28;20039;-84
2023/10/22 12:26:48;;;;;;;1.75;0.43;;;;;;;;;;5095431;28;20070;-84
2023/10/22 12:29:15;;;;;;;0.57;0.50;;;;;;;;;;5078678;28;20104;-84
2023/10/22 12:31:41;;;;;;;0.73;0.55;;;;;;;;;;5095092;28;20168;-83
2023/10/22 12:34:08;;;;;;;0.50;0.50;;;;;;;;;;5113854;28;20047;-83
2023/10/22 12:36:34;;;;;;;0.63;0.63;;;;;;;;;;5095079;28;20046;-84
2023/10/22 12:39:00;;;;;;;2.15;0.50;;;;;;;;;;5095178;28;20437;-84
2023/10/22 12:41:27;;;;;;;0.60;0.60;;;;;;;;;;5113023;28;20047;-84
2023/10/22 12:43:53;;;;;;;1.65;0.55;;;;;;;;;;5058008;28;20055;-84
2023/10/22 12:46:19;;;;;;;1.05;0.80;;;;;;;;;;5077543;28;20052;-84
2023/10/22 12:48:45;;;;;;;1.30;0.90;;;;;;;;;;5094659;28;20032;-83
2023/10/22 12:51:11;;;;;;;1.05;0.55;;;;;;;;;;5077891;28;20066;-84
2023/10/22 12:53:38;;;;;;;2.33;0.68;;;;;;;;;;5077326;28;20516;-83
2023/10/22 12:56:04;;;;;;;1.60;0.70;;;;;;;;;;5094989;28;20040;-83
2023/10/22 12:58:31;;;;;;;1.83;0.85;;;;;;;;;;5077637;28;20088;-84
2023/10/22 13:00:57;;;;;;;0.60;0.60;;;;;;;;;;5094963;28;20059;-84
2023/10/22 13:03:23;;;;;;;1.00;0.70;;;;;;;;;;5077291;28;20043;-84
2023/10/22 13:05:52;;;;;;;1.30;0.73;;;;;;;;;;5077630;28;20039;-83
2023/10/22 13:08:18;;;;;;;6.03;1.00;;;;;;;;;;5077348;28;20134;-84
2023/10/22 13:10:48;;;;;;;5.78;0.90;;;;;;;;;;5094383;28;20056;-83
2023/10/22 13:13:14;;;;;;;1.88;1.00;;;;;;;;;;5094456;28;20096;-83
2023/10/22 13:15:40;;;;;;;1.20;0.70;;;;;;;;;;5076229;28;20039;-83
2023/10/22 13:18:06;;;;;;;0.60;0.60;;;;;;;;;;5077395;28;20044;-83
2023/10/22 13:20:32;;;;;;;2.47;1.23;;;;;;;;;;5077311;28;20042;-83
2023/10/22 13:22:59;;;;;;;1.27;0.73;;;;;;;;;;5077431;28;20044;-83
2023/10/22 13:25:26;;;;;;;1.10;0.80;;;;;;;;;;5077261;28;20488;-83
2023/10/22 13:27:53;;;;;;;3.78;0.80;;;;;;;;;;5094000;28;20112;-83
2023/10/22 13:30:19;;;;;;;0.60;0.60;;;;;;;;;;5077324;28;20048;-83
2023/10/22 13:32:45;;;;;;;8.27;0.88;;;;;;;;;;5094544;28;20047;-83
2023/10/22 13:35:11;;;;;;;3.08;0.90;;;;;;;;;;5112446;28;20050;-84
2023/10/22 13:37:37;;;;;;;5.38;1.45;;;;;;;;;;5093774;28;20073;-84
2023/10/22 13:40:03;;;;;;;2.35;0.73;;;;;;;;;;5076947;28;20047;-84
2023/10/22 13:42:30;;;;;;;2.60;0.93;;;;;;;;;;5093976;28;20502;-84
2023/10/22 13:44:56;;;;;;;1.02;0.80;;;;;;;;;;5077476;28;20065;-83
2023/10/22 13:47:22;;;;;;;1.23;0.63;;;;;;;;;;5054184;28;20048;-83
2023/10/22 13:49:48;;;;;;;3.65;1.20;;;;;;;;;;5073940;28;20048;-84
2023/10/22 13:52:15;;;;;;;1.83;1.00;;;;;;;;;;5058811;28;20084;-84
2023/10/22 13:54:41;;;;;;;3.67;1.20;;;;;;;;;;5076886;28;20036;-84
2023/10/22 13:57:07;;;;;;;1.67;0.80;;;;;;;;;;5077148;28;20040;-84
2023/10/22 13:59:34;;;;;;;1.05;0.82;;;;;;;;;;5060589;28;20051;-84
2023/10/22 14:02:00;;;;;;;3.20;1.13;;;;;;;;;;5094367;28;20420;-84
2023/10/22 14:04:26;;;;;;;3.20;1.20;;;;;;;;;;5094044;28;20040;-83
2023/10/22 14:06:54;;;;;;;4.22;1.15;;;;;;;;;;5077008;28;20484;-83
2023/10/22 14:09:20;;;;;;;1.88;0.88;;;;;;;;;;5076257;28;20420;-84
2023/10/22 14:11:49;;;;;;;3.75;0.80;;;;;;;;;;5076996;28;20039;-84
2023/10/22 14:14:16;;;;;;;1.27;1.02;;;;;;;;;;5076811;28;20096;-84
2023/10/22 14:16:42;;;;;;;1.63;1.05;;;;;;;;;;5093634;28;20050;-82
2023/10/22 14:19:08;;;;;;;3.35;1.05;;;;;;;;;;5076748;28;20050;-82
2023/10/22 14:21:34;;;;;;;1.95;0.90;;;;;;;;;;5093209;28;20039;-81
2023/10/22 14:23:59;;;;;;;3.83;0.95;;;13.90;1.00;;;;;;5093464;28;20043;-81
2023/10/22 14:26:26;;;;;;;3.30;1.15;;;;;;;;;;5093782;28;20070;-81
2023/10/22 14:28:52;;;;;;;2.67;0.98;;;;;;;;;;5095352;28;20039;-81
2023/10/22 14:31:19;;;;;;;2.67;1.55;;;;;;;;;;5096624;28;20058;-82